SAS647 EKCH-EDDH
Flight info
| Callsign | SAS647 |
|---|---|
| Flight time | 0h 38m |
| Altitude | 24000 |
| Route | NEXEN T503 MICOS N850 BOGMU |
| Aircraft | E195/M-SDE3GILORVW/S |
Departure
| Time | 2026-05-07 11:13 |
|---|---|
| Airport | Copenhagen Kastrup Airport (EKCH) |
Arrival
| Time | 2026-05-07 11:52 |
|---|---|
| Airport | Hamburg Helmut Schmidt Airport (EDDH) |
| Time | Latitude | Longitude | Altitude | Speed | Heading |
|---|---|---|---|---|---|
| 2026-05-07 10:57 | 55.62851 | 12.63184 | 22 ft | 0 kts | 26° |
| 2026-05-07 11:03 | 55.62833 | 12.63168 | 23 ft | 4 kts | 26° |
| 2026-05-07 11:04 | 55.62813 | 12.63152 | 23 ft | 4 kts | 37° |
| 2026-05-07 11:04 | 55.62805 | 12.63123 | 23 ft | 4 kts | 117° |
| 2026-05-07 11:04 | 55.62804 | 12.63124 | 25 ft | 4 kts | 123° |
| 2026-05-07 11:04 | 55.62793 | 12.63153 | 22 ft | 0 kts | 123° |
| 2026-05-07 11:07 | 55.62788 | 12.63167 | 22 ft | 3 kts | 123° |
| 2026-05-07 11:07 | 55.62769 | 12.63221 | 23 ft | 7 kts | 122° |
| 2026-05-07 11:07 | 55.62734 | 12.63319 | 21 ft | 12 kts | 122° |
| 2026-05-07 11:07 | 55.62685 | 12.63464 | 22 ft | 15 kts | 115° |
| 2026-05-07 11:08 | 55.62673 | 12.63646 | 22 ft | 15 kts | 92° |
| 2026-05-07 11:08 | 55.62657 | 12.63842 | 25 ft | 17 kts | 116° |
| 2026-05-07 11:08 | 55.62588 | 12.64037 | 22 ft | 20 kts | 123° |
| 2026-05-07 11:08 | 55.62505 | 12.64245 | 22 ft | 21 kts | 124° |
| 2026-05-07 11:09 | 55.62417 | 12.64462 | 22 ft | 22 kts | 124° |
| 2026-05-07 11:09 | 55.62333 | 12.64695 | 22 ft | 22 kts | 124° |
| 2026-05-07 11:09 | 55.62230 | 12.64782 | 23 ft | 17 kts | 200° |
| 2026-05-07 11:09 | 55.62123 | 12.64670 | 24 ft | 18 kts | 213° |
| 2026-05-07 11:10 | 55.62010 | 12.64538 | 22 ft | 20 kts | 212° |
| 2026-05-07 11:10 | 55.61876 | 12.64514 | 24 ft | 21 kts | 169° |
| 2026-05-07 11:10 | 55.61731 | 12.64561 | 24 ft | 22 kts | 172° |
| 2026-05-07 11:10 | 55.61593 | 12.64469 | 22 ft | 22 kts | 215° |
| 2026-05-07 11:11 | 55.61461 | 12.64313 | 25 ft | 23 kts | 213° |
| 2026-05-07 11:11 | 55.61322 | 12.64157 | 22 ft | 24 kts | 213° |
| 2026-05-07 11:11 | 55.61179 | 12.63989 | 22 ft | 25 kts | 214° |
| 2026-05-07 11:11 | 55.61031 | 12.63822 | 25 ft | 26 kts | 213° |
| 2026-05-07 11:12 | 55.60879 | 12.63647 | 22 ft | 26 kts | 213° |
| 2026-05-07 11:12 | 55.60750 | 12.63672 | 22 ft | 21 kts | 134° |
| 2026-05-07 11:12 | 55.60680 | 12.63865 | 24 ft | 13 kts | 81° |
| 2026-05-07 11:12 | 55.60699 | 12.63902 | 25 ft | 0 kts | 40° |
| 2026-05-07 11:13 | 55.60819 | 12.64083 | 26 ft | 58 kts | 40° |
| 2026-05-07 11:13 | 55.61303 | 12.64830 | 23 ft | 124 kts | 39° |
| 2026-05-07 11:13 | 55.62066 | 12.66012 | 329 ft | 153 kts | 39° |
| 2026-05-07 11:13 | 55.62879 | 12.67210 | 1355 ft | 156 kts | 41° |
| 2026-05-07 11:14 | 55.63721 | 12.68505 | 1885 ft | 169 kts | 45° |
| 2026-05-07 11:14 | 55.64614 | 12.70011 | 2314 ft | 186 kts | 45° |
| 2026-05-07 11:14 | 55.65631 | 12.71645 | 2735 ft | 210 kts | 43° |
| 2026-05-07 11:14 | 55.66790 | 12.73385 | 3292 ft | 224 kts | 41° |
| 2026-05-07 11:15 | 55.68050 | 12.75228 | 3784 ft | 245 kts | 41° |
| 2026-05-07 11:15 | 55.69394 | 12.77213 | 4447 ft | 254 kts | 42° |
| 2026-05-07 11:15 | 55.70529 | 12.79604 | 5235 ft | 257 kts | 66° |
| 2026-05-07 11:15 | 55.70834 | 12.82695 | 6036 ft | 258 kts | 94° |
| 2026-05-07 11:16 | 55.70309 | 12.85749 | 6746 ft | 264 kts | 118° |
| 2026-05-07 11:16 | 55.69087 | 12.88158 | 7356 ft | 273 kts | 144° |
| 2026-05-07 11:16 | 55.67339 | 12.89564 | 8013 ft | 278 kts | 161° |
| 2026-05-07 11:16 | 55.65468 | 12.90526 | 8689 ft | 282 kts | 165° |
| 2026-05-07 11:17 | 55.63550 | 12.91344 | 9388 ft | 285 kts | 168° |
| 2026-05-07 11:17 | 55.61575 | 12.91818 | 10109 ft | 288 kts | 178° |
| 2026-05-07 11:17 | 55.59541 | 12.91595 | 10509 ft | 302 kts | 196° |
| 2026-05-07 11:17 | 55.57682 | 12.89777 | 10994 ft | 311 kts | 221° |
| 2026-05-07 11:18 | 55.56185 | 12.87001 | 11778 ft | 312 kts | 231° |
| 2026-05-07 11:18 | 55.54818 | 12.84035 | 12637 ft | 312 kts | 231° |
| 2026-05-07 11:18 | 55.53415 | 12.81083 | 13507 ft | 315 kts | 230° |
| 2026-05-07 11:18 | 55.51978 | 12.78127 | 14302 ft | 319 kts | 230° |
| 2026-05-07 11:19 | 55.50476 | 12.75200 | 15039 ft | 323 kts | 229° |
| 2026-05-07 11:19 | 55.49038 | 12.72184 | 15816 ft | 327 kts | 231° |
| 2026-05-07 11:19 | 55.47589 | 12.69045 | 16579 ft | 331 kts | 231° |
| 2026-05-07 11:19 | 55.46111 | 12.65899 | 17340 ft | 335 kts | 231° |
| 2026-05-07 11:20 | 55.44606 | 12.62725 | 18108 ft | 340 kts | 231° |
| 2026-05-07 11:20 | 55.43083 | 12.59519 | 18820 ft | 343 kts | 231° |
| 2026-05-07 11:20 | 55.41540 | 12.56289 | 19518 ft | 345 kts | 231° |
| 2026-05-07 11:20 | 55.39990 | 12.53047 | 20211 ft | 348 kts | 230° |
| 2026-05-07 11:21 | 55.38424 | 12.49780 | 20877 ft | 350 kts | 230° |
| 2026-05-07 11:21 | 55.36849 | 12.46499 | 21521 ft | 353 kts | 230° |
| 2026-05-07 11:21 | 55.35260 | 12.43193 | 22145 ft | 355 kts | 231° |
| 2026-05-07 11:21 | 55.33654 | 12.39857 | 22757 ft | 358 kts | 230° |
| 2026-05-07 11:22 | 55.32062 | 12.36555 | 23325 ft | 360 kts | 230° |
| 2026-05-07 11:22 | 55.30434 | 12.33181 | 23838 ft | 363 kts | 230° |
| 2026-05-07 11:22 | 55.28793 | 12.29787 | 24281 ft | 368 kts | 230° |
| 2026-05-07 11:22 | 55.27096 | 12.26274 | 24206 ft | 388 kts | 230° |
| 2026-05-07 11:23 | 55.25294 | 12.22561 | 24117 ft | 408 kts | 230° |
| 2026-05-07 11:23 | 55.23424 | 12.18714 | 24164 ft | 420 kts | 230° |
| 2026-05-07 11:23 | 55.21511 | 12.14778 | 24186 ft | 428 kts | 230° |
| 2026-05-07 11:23 | 55.19395 | 12.11085 | 24157 ft | 431 kts | 219° |
| 2026-05-07 11:24 | 55.16978 | 12.07925 | 24075 ft | 432 kts | 217° |
| 2026-05-07 11:24 | 55.14561 | 12.04876 | 24079 ft | 425 kts | 217° |
| 2026-05-07 11:24 | 55.12197 | 12.01862 | 24087 ft | 426 kts | 217° |
| 2026-05-07 11:24 | 55.09797 | 11.98807 | 24099 ft | 427 kts | 217° |
| 2026-05-07 11:25 | 55.07394 | 11.95752 | 24090 ft | 427 kts | 217° |
| 2026-05-07 11:25 | 55.04988 | 11.92696 | 24094 ft | 427 kts | 217° |
| 2026-05-07 11:25 | 55.02585 | 11.89645 | 24091 ft | 427 kts | 217° |
| 2026-05-07 11:25 | 55.00178 | 11.86595 | 24103 ft | 427 kts | 217° |
| 2026-05-07 11:26 | 54.97769 | 11.83547 | 24084 ft | 427 kts | 217° |
| 2026-05-07 11:26 | 54.95364 | 11.80505 | 24083 ft | 427 kts | 217° |
| 2026-05-07 11:26 | 54.92954 | 11.77465 | 24087 ft | 427 kts | 217° |
| 2026-05-07 11:26 | 54.90550 | 11.74434 | 24093 ft | 428 kts | 217° |
| 2026-05-07 11:27 | 54.88141 | 11.71404 | 24094 ft | 427 kts | 217° |
| 2026-05-07 11:27 | 54.85729 | 11.68382 | 24099 ft | 428 kts | 217° |
| 2026-05-07 11:27 | 54.83347 | 11.65401 | 24090 ft | 428 kts | 217° |
| 2026-05-07 11:27 | 54.80958 | 11.62324 | 24097 ft | 428 kts | 220° |
| 2026-05-07 11:28 | 54.78734 | 11.58884 | 23997 ft | 429 kts | 225° |
| 2026-05-07 11:28 | 54.76629 | 11.55231 | 23811 ft | 427 kts | 226° |
| 2026-05-07 11:28 | 54.74524 | 11.51619 | 23557 ft | 425 kts | 225° |
| 2026-05-07 11:28 | 54.72409 | 11.48034 | 23276 ft | 423 kts | 225° |
| 2026-05-07 11:29 | 54.70303 | 11.44486 | 23011 ft | 422 kts | 225° |
| 2026-05-07 11:29 | 54.68200 | 11.40953 | 22740 ft | 421 kts | 225° |
| 2026-05-07 11:29 | 54.66099 | 11.37436 | 22480 ft | 420 kts | 225° |
| 2026-05-07 11:29 | 54.64031 | 11.33978 | 22223 ft | 418 kts | 225° |
| 2026-05-07 11:30 | 54.61935 | 11.30489 | 21974 ft | 417 kts | 224° |
| 2026-05-07 11:30 | 54.59851 | 11.27024 | 21715 ft | 416 kts | 224° |
| 2026-05-07 11:30 | 54.57769 | 11.23572 | 21465 ft | 414 kts | 224° |
| 2026-05-07 11:30 | 54.55688 | 11.20147 | 21218 ft | 413 kts | 224° |
| 2026-05-07 11:31 | 54.53617 | 11.16736 | 20970 ft | 411 kts | 224° |
| 2026-05-07 11:31 | 54.51551 | 11.13328 | 20732 ft | 410 kts | 224° |
| 2026-05-07 11:31 | 54.49494 | 11.09936 | 20495 ft | 409 kts | 224° |
| 2026-05-07 11:31 | 54.47444 | 11.06562 | 20257 ft | 407 kts | 224° |
| 2026-05-07 11:32 | 54.43361 | 10.99838 | 19765 ft | 405 kts | 224° |
| 2026-05-07 11:32 | 54.41324 | 10.96495 | 19283 ft | 405 kts | 224° |
| 2026-05-07 11:32 | 54.39977 | 10.94286 | 18941 ft | 402 kts | 224° |
| 2026-05-07 11:33 | 54.37962 | 10.90984 | 18424 ft | 398 kts | 224° |
| 2026-05-07 11:33 | 54.35969 | 10.87725 | 17857 ft | 394 kts | 224° |
| 2026-05-07 11:33 | 54.33355 | 10.83453 | 17109 ft | 390 kts | 224° |
| 2026-05-07 11:33 | 54.31412 | 10.80248 | 16574 ft | 387 kts | 224° |
| 2026-05-07 11:34 | 54.30095 | 10.78104 | 16216 ft | 385 kts | 224° |
| 2026-05-07 11:34 | 54.28179 | 10.74998 | 15705 ft | 382 kts | 224° |
| 2026-05-07 11:34 | 54.26252 | 10.71876 | 15192 ft | 381 kts | 224° |
| 2026-05-07 11:34 | 54.24330 | 10.68754 | 14703 ft | 380 kts | 224° |
| 2026-05-07 11:35 | 54.22413 | 10.65649 | 14199 ft | 378 kts | 224° |
| 2026-05-07 11:35 | 54.20505 | 10.62559 | 13706 ft | 377 kts | 224° |
| 2026-05-07 11:35 | 54.18599 | 10.59480 | 13164 ft | 376 kts | 224° |
| 2026-05-07 11:35 | 54.16702 | 10.56421 | 12636 ft | 373 kts | 224° |
| 2026-05-07 11:36 | 54.14823 | 10.53387 | 12113 ft | 371 kts | 224° |
| 2026-05-07 11:36 | 54.12950 | 10.50371 | 11630 ft | 369 kts | 223° |
| 2026-05-07 11:36 | 54.11097 | 10.47394 | 11443 ft | 365 kts | 223° |
| 2026-05-07 11:36 | 54.09239 | 10.44405 | 10998 ft | 367 kts | 223° |
| 2026-05-07 11:37 | 54.07388 | 10.41436 | 10652 ft | 364 kts | 223° |
| 2026-05-07 11:37 | 54.05544 | 10.38487 | 10338 ft | 363 kts | 223° |
| 2026-05-07 11:37 | 54.03706 | 10.35547 | 10024 ft | 362 kts | 223° |
| 2026-05-07 11:37 | 54.01906 | 10.32668 | 9433 ft | 353 kts | 223° |
| 2026-05-07 11:38 | 54.00159 | 10.29875 | 8879 ft | 333 kts | 223° |
| 2026-05-07 11:38 | 53.98524 | 10.27265 | 8352 ft | 313 kts | 223° |
| 2026-05-07 11:38 | 53.96982 | 10.24818 | 8165 ft | 287 kts | 222° |
| 2026-05-07 11:38 | 53.95538 | 10.22517 | 8143 ft | 287 kts | 223° |
| 2026-05-07 11:39 | 53.94076 | 10.20190 | 8081 ft | 288 kts | 223° |
| 2026-05-07 11:39 | 53.92616 | 10.17869 | 8082 ft | 286 kts | 223° |
| 2026-05-07 11:39 | 53.91181 | 10.15586 | 8119 ft | 287 kts | 223° |
| 2026-05-07 11:39 | 53.89729 | 10.13258 | 8117 ft | 287 kts | 222° |
| 2026-05-07 11:40 | 53.88258 | 10.10953 | 8057 ft | 287 kts | 222° |
| 2026-05-07 11:40 | 53.86924 | 10.08861 | 8064 ft | 287 kts | 222° |
| 2026-05-07 11:40 | 53.85461 | 10.06555 | 8099 ft | 287 kts | 222° |
| 2026-05-07 11:40 | 53.83998 | 10.04230 | 8064 ft | 287 kts | 222° |
| 2026-05-07 11:41 | 53.82542 | 10.01925 | 8057 ft | 287 kts | 222° |
| 2026-05-07 11:41 | 53.81089 | 9.99612 | 8061 ft | 288 kts | 222° |
| 2026-05-07 11:41 | 53.79635 | 9.97348 | 8057 ft | 289 kts | 221° |
| 2026-05-07 11:41 | 53.78159 | 9.95063 | 8069 ft | 287 kts | 221° |
| 2026-05-07 11:42 | 53.76681 | 9.92772 | 8079 ft | 288 kts | 221° |
| 2026-05-07 11:42 | 53.75209 | 9.90484 | 8080 ft | 288 kts | 221° |
| 2026-05-07 11:42 | 53.73739 | 9.88163 | 7966 ft | 291 kts | 222° |
| 2026-05-07 11:42 | 53.72258 | 9.85828 | 7766 ft | 292 kts | 221° |
| 2026-05-07 11:43 | 53.70765 | 9.83495 | 7490 ft | 292 kts | 221° |
| 2026-05-07 11:43 | 53.69284 | 9.81182 | 7226 ft | 288 kts | 221° |
| 2026-05-07 11:43 | 53.67818 | 9.78887 | 6970 ft | 286 kts | 221° |
| 2026-05-07 11:43 | 53.66366 | 9.76604 | 6676 ft | 285 kts | 221° |
| 2026-05-07 11:44 | 53.64907 | 9.74336 | 6357 ft | 286 kts | 221° |
| 2026-05-07 11:44 | 53.63470 | 9.72080 | 6038 ft | 286 kts | 221° |
| 2026-05-07 11:44 | 53.62000 | 9.69773 | 5708 ft | 283 kts | 220° |
| 2026-05-07 11:44 | 53.60573 | 9.67558 | 5390 ft | 281 kts | 220° |
| 2026-05-07 11:45 | 53.59140 | 9.65349 | 5061 ft | 278 kts | 220° |
| 2026-05-07 11:45 | 53.57723 | 9.63163 | 4745 ft | 275 kts | 220° |
| 2026-05-07 11:45 | 53.56300 | 9.61066 | 4406 ft | 266 kts | 212° |
| 2026-05-07 11:45 | 53.54646 | 9.59951 | 4036 ft | 250 kts | 182° |
| 2026-05-07 11:46 | 53.53013 | 9.60361 | 3716 ft | 229 kts | 149° |
| 2026-05-07 11:46 | 53.51809 | 9.61988 | 3554 ft | 220 kts | 131° |
| 2026-05-07 11:46 | 53.50712 | 9.63765 | 3366 ft | 217 kts | 134° |
| 2026-05-07 11:46 | 53.49779 | 9.65686 | 3165 ft | 211 kts | 110° |
| 2026-05-07 11:47 | 53.49590 | 9.68026 | 2981 ft | 203 kts | 86° |
| 2026-05-07 11:47 | 53.49728 | 9.70318 | 3077 ft | 196 kts | 80° |
| 2026-05-07 11:47 | 53.50059 | 9.72532 | 3179 ft | 197 kts | 63° |
| 2026-05-07 11:47 | 53.50867 | 9.74313 | 3272 ft | 187 kts | 47° |
| 2026-05-07 11:48 | 53.51747 | 9.75914 | 3004 ft | 188 kts | 52° |
| 2026-05-07 11:48 | 53.52531 | 9.77634 | 2935 ft | 177 kts | 53° |
| 2026-05-07 11:48 | 53.53296 | 9.79181 | 2910 ft | 178 kts | 51° |
| 2026-05-07 11:48 | 53.54120 | 9.80778 | 2588 ft | 179 kts | 51° |
| 2026-05-07 11:49 | 53.54918 | 9.82367 | 2342 ft | 177 kts | 52° |
| 2026-05-07 11:49 | 53.55686 | 9.83967 | 2070 ft | 174 kts | 53° |
| 2026-05-07 11:49 | 53.56441 | 9.85500 | 1872 ft | 168 kts | 52° |
| 2026-05-07 11:49 | 53.57190 | 9.86981 | 1625 ft | 163 kts | 50° |
| 2026-05-07 11:50 | 53.57898 | 9.88403 | 1422 ft | 155 kts | 51° |
| 2026-05-07 11:50 | 53.58555 | 9.89759 | 1181 ft | 143 kts | 51° |
| 2026-05-07 11:50 | 53.59196 | 9.91027 | 976 ft | 144 kts | 50° |
| 2026-05-07 11:50 | 53.59821 | 9.92301 | 780 ft | 138 kts | 51° |
| 2026-05-07 11:51 | 53.60444 | 9.93559 | 553 ft | 142 kts | 51° |
| 2026-05-07 11:51 | 53.61086 | 9.94853 | 379 ft | 145 kts | 52° |
| 2026-05-07 11:51 | 53.61728 | 9.96161 | 171 ft | 144 kts | 53° |
| 2026-05-07 11:51 | 53.62338 | 9.97408 | 41 ft | 132 kts | 52° |
| 2026-05-07 11:52 | 53.62849 | 9.98442 | 43 ft | 93 kts | 49° |
| 2026-05-07 11:52 | 53.63179 | 9.99110 | 45 ft | 54 kts | 51° |
| 2026-05-07 11:52 | 53.63292 | 9.99483 | 45 ft | 25 kts | 88° |
| 2026-05-07 11:52 | 53.63281 | 9.99627 | 47 ft | 0 kts | 101° |
| 2026-05-07 11:53 | 53.63280 | 9.99630 | 47 ft | 0 kts | 101° |
| 2026-05-07 11:53 | 53.63280 | 9.99636 | 47 ft | 0 kts | 101° |
| 2026-05-07 11:54 | 53.63277 | 9.99657 | 47 ft | 5 kts | 101° |
| 2026-05-07 11:54 | 53.63247 | 9.99738 | 47 ft | 10 kts | 148° |
| 2026-05-07 11:54 | 53.63179 | 9.99800 | 47 ft | 12 kts | 153° |
| 2026-05-07 11:54 | 53.63099 | 9.99867 | 47 ft | 14 kts | 153° |
| 2026-05-07 11:55 | 53.63015 | 9.99940 | 47 ft | 9 kts | 153° |
| 2026-05-07 11:55 | 53.62995 | 9.99957 | 47 ft | 0 kts | 152° |
| 2026-05-07 11:56 | 53.62984 | 9.99967 | 47 ft | 3 kts | 152° |
| 2026-05-07 11:57 | 53.62954 | 9.99993 | 47 ft | 6 kts | 152° |
| 2026-05-07 11:57 | 53.62905 | 10.00034 | 47 ft | 9 kts | 159° |
| 2026-05-07 11:57 | 53.62835 | 10.00080 | 47 ft | 12 kts | 152° |
| 2026-05-07 11:57 | 53.62777 | 10.00132 | 45 ft | 0 kts | 144° |
| 2026-05-07 11:58 | 53.62777 | 10.00147 | 47 ft | 3 kts | 86° |
| 2026-05-07 11:58 | 53.62798 | 10.00211 | 47 ft | 6 kts | 61° |
| 2026-05-07 11:58 | 53.62807 | 10.00241 | 46 ft | 2 kts | 63° |
| 2026-05-07 11:58 | 53.62809 | 10.00247 | 47 ft | 0 kts | 63° |